Time;durP1;ratioP1;P1;durP2;ratioP2;P2;SDS_P1;SDS_P2;PMS_P1;PMS_P2;Temp;Humidity;BMP_temperature;BMP_pressure;BME280_temperature;BME280_humidity;BME280_pressure;Samples;Min_cycle;Max_cycle;Signal;HPM_P1;HPM_P2
2022/04/24 00:04:41;;;;;;;5.38;3.83;;;;;;;12.16;58.93;100550.88;10475181;28;20048;-59
2022/04/24 00:10:04;;;;;;;7.45;3.97;;;;;;;12.13;58.57;100545.91;10481268;28;20048;-59
2022/04/24 00:15:26;;;;;;;7.22;4.22;;;;;;;12.09;58.41;100556.66;10483202;28;20053;-60
2022/04/24 00:20:47;;;;;;;10.95;4.03;;;;;;;11.93;58.48;100543.13;10483164;28;20520;-60
2022/04/24 00:26:09;;;;;;;5.13;3.97;;;;;;;11.82;58.66;100541.28;10473190;28;20044;-60
2022/04/24 00:31:31;;;;;;;5.20;4.03;;;;;;;11.81;58.50;100544.00;10467173;28;20059;-60
2022/04/24 00:36:53;;;;;;;4.82;4.32;;;;;;;11.66;58.92;100535.53;10475236;28;20048;-59
2022/04/24 00:42:16;;;;;;;5.32;4.10;;;;;;;11.55;59.24;100537.25;10479418;28;20049;-59
2022/04/24 00:47:37;;;;;;;5.53;4.32;;;;;;;11.50;59.21;100528.88;10456279;28;20049;-59
2022/04/24 00:52:59;;;;;;;6.03;3.88;;;;;;;11.44;59.28;100526.75;10509325;28;20046;-60
2022/04/24 00:58:20;;;;;;;6.97;4.00;;;;;;;11.37;59.35;100517.69;10449661;28;20045;-60
2022/04/24 01:03:42;;;;;;;5.28;3.90;;;;;;;11.29;59.49;100514.81;10479497;28;20052;-62
2022/04/24 01:09:18;;;;;;;7.35;3.80;;;;;;;11.20;59.80;100499.81;10488677;28;20044;-59
2022/04/24 01:14:40;;;;;;;4.07;3.67;;;;;;;11.13;59.24;100514.22;10474838;28;20048;-59
2022/04/24 01:20:02;;;;;;;7.15;4.63;;;;;;;11.07;60.05;100504.22;10481620;28;20135;-60
2022/04/24 01:25:24;;;;;;;5.38;4.40;;;;;;;11.00;59.54;100508.22;10472093;28;20040;-60
2022/04/24 01:30:46;;;;;;;8.25;5.10;;;;;;;10.92;60.09;100515.75;10476927;28;20059;-60
2022/04/24 01:36:08;;;;;;;7.80;4.93;;;;;;;10.77;60.00;100516.84;10470451;28;20041;-61
2022/04/24 01:41:30;;;;;;;8.27;5.10;;;;;;;10.66;60.33;100506.31;10477802;28;20083;-60
2022/04/24 01:46:52;;;;;;;6.10;5.03;;;;;;;10.54;60.53;100515.00;10484392;28;20048;-60
2022/04/24 01:52:13;;;;;;;7.50;5.05;;;;;;;10.48;60.73;100514.59;10484082;28;20055;-59
2022/04/24 01:57:35;;;;;;;7.93;5.35;;;;;;;10.41;61.35;100522.94;10470286;28;20040;-59
2022/04/24 02:02:57;;;;;;;7.40;4.93;;;;;;;10.29;61.93;100514.19;10476039;28;20537;-60
2022/04/24 02:08:19;;;;;;;8.65;5.43;;;;;;;10.23;62.28;100509.41;10475195;28;20063;-59
2022/04/24 02:13:41;;;;;;;6.75;4.93;;;;;;;10.14;62.55;100517.00;10466128;28;20056;-59
2022/04/24 02:19:02;;;;;;;6.82;5.13;;;;;;;10.03;62.45;100517.72;10487725;28;20053;-59
2022/04/24 02:24:24;;;;;;;11.38;5.38;;;;;;;9.90;62.41;100521.22;10489932;28;20052;-60
2022/04/24 02:29:45;;;;;;;7.40;5.05;;;;;;;9.87;62.55;100519.66;10456631;28;20132;-60
2022/04/24 02:35:07;;;;;;;7.97;4.90;;;;;;;9.84;62.70;100511.22;10474406;28;20053;-59
2022/04/24 02:40:29;;;;;;;6.70;4.90;;;;;;;9.81;63.03;100522.69;10474902;28;20049;-59
2022/04/24 02:45:50;;;;;;;9.02;5.25;;;;;;;9.82;62.89;100513.09;10480385;28;20062;-60
2022/04/24 02:51:12;;;;;;;6.68;4.93;;;;;;;9.69;63.27;100507.03;10462910;28;20053;-61
2022/04/24 02:56:34;;;;;;;6.75;4.85;;;;;;;9.67;63.79;100507.16;10469069;28;20040;-59
2022/04/24 03:01:55;;;;;;;8.73;5.05;;;;;;;9.62;63.77;100505.75;10484886;28;20071;-60
2022/04/24 03:07:17;;;;;;;9.88;5.03;;;;;;;9.58;63.83;100504.31;10473477;28;20080;-60
2022/04/24 03:12:40;;;;;;;7.07;4.65;;;;;;;9.59;63.02;100505.97;10469036;28;20056;-60
2022/04/24 03:18:02;;;;;;;7.60;4.88;;;;;;;9.59;63.79;100495.56;10470908;28;20657;-59
2022/04/24 03:23:24;;;;;;;8.35;5.20;;;;;;;9.57;63.78;100487.03;10441984;28;20485;-60
2022/04/24 03:28:46;;;;;;;11.40;4.95;;;;;;;9.56;64.56;100485.34;10488458;28;20053;-60
2022/04/24 03:34:08;;;;;;;7.72;4.70;;;;;;;9.58;63.81;100488.69;10485472;28;20044;-60
2022/04/24 03:39:29;;;;;;;9.38;4.88;;;;;;;9.49;64.55;100488.47;10470466;28;20049;-60
2022/04/24 03:44:56;;;;;;;6.50;4.78;;;;;;;9.43;65.06;100492.31;10487578;28;20044;-59
2022/04/24 03:50:21;;;;;;;7.03;4.82;;;;;;;9.45;65.01;100492.19;10480213;28;20489;-60
2022/04/24 03:55:42;;;;;;;7.75;4.95;;;;;;;9.43;65.48;100481.91;10492558;28;20048;-59
2022/04/24 04:01:11;;;;;;;5.75;4.50;;;;;;;9.45;65.07;100492.19;10473558;28;20102;-60
2022/04/24 04:06:33;;;;;;;6.10;4.68;;;;;;;9.40;64.88;100487.28;10473175;28;20044;-60
2022/04/24 04:11:55;;;;;;;8.20;5.38;;;;;;;9.34;65.56;100485.06;10490865;28;20049;-59
2022/04/24 04:17:17;;;;;;;8.52;5.18;;;;;;;9.34;66.05;100494.66;10483255;28;20059;-60
2022/04/24 04:22:45;;;;;;;7.88;5.10;;;;;;;9.32;67.58;100484.34;10480196;28;20677;-60
2022/04/24 04:28:07;;;;;;;13.18;5.72;;;;;;;9.33;66.51;100488.59;10482133;28;20135;-60
2022/04/24 04:33:29;;;;;;;9.02;4.97;;;;;;;9.32;66.38;100486.94;10478815;28;20124;-59
2022/04/24 04:38:51;;;;;;;7.15;4.65;;;;;;;9.37;66.17;100492.69;10480208;28;20143;-60
2022/04/24 04:44:12;;;;;;;7.93;4.97;;;;;;;9.38;66.22;100496.13;10478607;28;20064;-60
2022/04/24 04:49:34;;;;;;;8.00;4.97;;;;;;;9.47;66.51;100491.13;10476555;28;20051;-60
2022/04/24 04:54:56;;;;;;;12.80;4.82;;;;;;;9.54;66.39;100497.63;10475477;28;20052;-60
2022/04/24 05:00:18;;;;;;;6.07;4.25;;;;;;;9.59;66.89;100511.19;10473114;28;20067;-60
2022/04/24 05:05:40;;;;;;;10.13;4.60;;;;;;;9.65;65.48;100510.75;10478915;28;20544;-60
2022/04/24 05:11:01;;;;;;;6.47;4.25;;;;;;;9.71;65.50;100515.56;10473811;28;20064;-60
2022/04/24 05:16:23;;;;;;;7.50;4.07;;;;;;;9.74;65.39;100517.97;10472399;28;20055;-61
2022/04/24 05:21:44;;;;;;;6.53;3.88;;;;;;;9.85;65.05;100512.91;10473212;28;20057;-60
2022/04/24 05:27:07;;;;;;;7.65;3.78;;;;;;;9.92;64.88;100516.75;10473726;28;20052;-60
2022/04/24 05:32:29;;;;;;;5.65;3.80;;;;;;;9.96;64.80;100513.00;10485769;28;20056;-60
2022/04/24 05:37:51;;;;;;;6.28;3.67;;;;;;;10.09;64.92;100511.28;10484237;28;20044;-61
2022/04/24 05:43:12;;;;;;;6.30;3.22;;;;;;;10.10;64.74;100519.00;10443861;28;20045;-60
2022/04/24 05:48:34;;;;;;;8.48;4.00;;;;;;;10.12;65.83;100516.28;10443723;28;20056;-60
2022/04/24 05:53:55;;;;;;;7.03;4.25;;;;;;;10.12;65.46;100522.31;10452231;28;20052;-60
2022/04/24 05:59:17;;;;;;;6.93;4.32;;;;;;;10.03;66.40;100525.53;10462960;28;20059;-61
2022/04/24 06:04:39;;;;;;;5.55;4.10;;;;;;;10.10;66.22;100529.41;10472623;28;20040;-61
2022/04/24 06:10:01;;;;;;;9.43;3.90;;;;;;;10.08;65.75;100531.28;10482046;28;20059;-61
2022/04/24 06:15:24;;;;;;;7.10;3.45;;;;;;;10.09;66.74;100524.28;10470230;28;20049;-60
2022/04/24 06:20:46;;;;;;;7.78;3.30;;;;;;;10.10;65.47;100528.56;10453770;28;20441;-61
2022/04/24 06:26:08;;;;;;;6.72;2.85;;;;;;;10.23;65.38;100526.78;10456074;28;20421;-61
2022/04/24 06:31:29;;;;;;;5.72;2.92;;;;;;;10.37;64.88;100534.50;10448852;28;20045;-61
2022/04/24 06:36:51;;;;;;;6.70;2.88;;;;;;;10.50;64.92;100530.13;10480915;28;20059;-61
2022/04/24 06:42:12;;;;;;;6.65;3.25;;;;;;;10.62;66.77;100540.53;10462309;28;20489;-61
2022/04/24 06:47:34;;;;;;;5.40;2.88;;;;;;;10.83;63.38;100542.50;10469487;28;20052;-61
2022/04/24 06:53:00;;;;;;;6.18;2.75;;;;;;;11.04;64.85;100541.00;10463250;28;20063;-61
2022/04/24 06:58:24;;;;;;;4.45;2.85;;;;;;;11.18;63.50;100533.00;10466718;28;20045;-61
2022/04/24 07:03:46;;;;;;;4.65;2.70;;;;;;;11.35;63.75;100534.41;10461147;28;20045;-61
2022/04/24 07:09:07;;;;;;;4.18;2.67;;;;;;;11.39;62.22;100534.06;10467837;28;20107;-61
2022/04/24 07:14:29;;;;;;;3.67;2.67;;;;;;;11.46;62.58;100531.84;10469105;28;20060;-61
2022/04/24 07:19:51;;;;;;;5.75;2.90;;;;;;;11.59;62.55;100530.88;10478450;28;20052;-62
2022/04/24 07:25:18;;;;;;;10.32;3.03;;;;;;;11.65;63.10;100525.19;10452184;28;20052;-61
2022/04/24 07:30:40;;;;;;;7.38;3.58;;;;;;;11.72;62.42;100524.63;10451742;28;20052;-61
2022/04/24 07:36:04;;;;;;;4.32;2.78;;;;;;;11.79;61.84;100530.22;10449642;28;20045;-61
2022/04/24 07:41:26;;;;;;;7.78;3.17;;;;;;;11.88;62.33;100524.31;10457417;28;20052;-65
2022/04/24 07:46:47;;;;;;;5.43;3.45;;;;;;;12.00;62.01;100533.84;10459323;28;20044;-60
2022/04/24 07:52:09;;;;;;;8.18;3.85;;;;;;;12.05;62.60;100532.56;10468224;28;20072;-61
2022/04/24 07:57:31;;;;;;;12.27;3.95;;;;;;;12.11;61.58;100531.25;10456172;28;20037;-61
2022/04/24 08:02:56;;;;;;;6.15;3.45;;;;;;;12.21;61.81;100516.56;10460145;28;20341;-61
2022/04/24 08:08:21;;;;;;;7.70;4.10;;;;;;;12.21;62.17;100511.34;10474392;28;20059;-61
2022/04/24 08:13:43;;;;;;;7.97;4.18;;;;;;;12.30;62.45;100515.84;10484629;28;20058;-61
2022/04/24 08:19:04;;;;;;;7.38;4.30;;;;;;;12.38;62.22;100518.69;10461156;28;20053;-61
2022/04/24 08:24:26;;;;;;;9.10;4.68;;;;;;;12.44;62.24;100524.31;10487988;28;20053;-62
2022/04/24 08:29:48;;;;;;;7.78;3.65;;;;;;;12.56;60.43;100518.13;10461402;28;20060;-62
2022/04/24 08:35:11;;;;;;;6.90;3.75;;;;;;;12.75;61.81;100518.34;10439626;28;20051;-62
2022/04/24 08:40:34;;;;;;;7.38;3.90;;;;;;;12.87;60.14;100514.81;10427990;28;20056;-62
2022/04/24 08:45:55;;;;;;;8.88;3.78;;;;;;;13.03;60.35;100523.09;10465898;28;20790;-62
2022/04/24 08:51:19;;;;;;;7.28;3.45;;;;;;;13.07;60.12;100517.53;10453293;28;20134;-61
2022/04/24 08:56:41;;;;;;;6.72;3.70;;;;;;;13.17;60.45;100515.84;10455089;28;20431;-62
2022/04/24 09:02:03;;;;;;;9.23;3.40;;;;;;;13.32;59.32;100514.59;10455407;28;20075;-61
2022/04/24 09:07:31;;;;;;;8.50;3.75;;;;;;;13.42;59.56;100514.69;10481398;28;20063;-61
2022/04/24 09:12:54;;;;;;;4.47;2.95;;;;;;;13.54;58.22;100514.50;10437445;28;20060;-62
2022/04/24 09:18:15;;;;;;;7.63;2.97;;;;;;;13.70;58.24;100514.91;10460755;28;20493;-62
2022/04/24 09:23:37;;;;;;;5.07;2.95;;;;;;;13.77;58.52;100511.66;10457277;28;20627;-62
2022/04/24 09:28:59;;;;;;;6.10;2.90;;;;;;;13.78;58.58;100513.34;10455398;28;20041;-63
2022/04/24 09:34:28;;;;;;;5.50;2.92;;;;;;;13.90;58.01;100501.00;10470907;28;20048;-62
2022/04/24 09:39:50;;;;;;;3.03;2.60;;;;;;;13.89;57.90;100508.06;10482272;28;20059;-63
2022/04/24 09:45:23;;;;;;;4.22;2.70;;;;;;;14.01;57.20;100498.31;10465114;28;20049;-62
2022/04/24 09:51:04;;;;;;;8.35;2.60;;;;;;;14.13;56.87;100506.03;10445151;28;20056;-62
2022/04/24 09:56:27;;;;;;;3.55;2.40;;;;;;;14.32;56.43;100514.00;10452628;28;20037;-62
2022/04/24 10:01:49;;;;;;;8.50;2.42;;;;;;;14.40;55.92;100508.94;10452265;28;20056;-62
2022/04/24 10:07:19;;;;;;;5.40;2.50;;;;;;;14.44;55.42;100505.91;10448388;28;20159;-62
2022/04/24 10:12:43;;;;;;;4.32;2.60;;;;;;;14.65;55.87;100509.31;10434632;28;20375;-62
2022/04/24 10:18:17;;;;;;;4.63;2.78;;;;;;;14.81;54.61;100506.19;10446541;28;20048;-62
2022/04/24 10:23:38;;;;;;;4.47;2.70;;;;;;;14.84;55.72;100511.19;10491971;28;20064;-62
2022/04/24 10:29:04;;;;;;;3.13;2.25;;;;;;;15.01;55.26;100500.03;10481889;28;20044;-62
2022/04/24 10:34:26;;;;;;;4.57;2.50;;;;;;;15.14;54.56;100493.56;10467107;28;20793;-62
2022/04/24 10:39:54;;;;;;;5.32;2.80;;;;;;;15.32;52.98;100504.28;10463324;28;20056;-62
2022/04/24 10:45:19;;;;;;;4.53;2.33;;;;;;;15.27;54.35;100512.56;10470329;28;20403;-62
2022/04/24 10:50:48;;;;;;;2.75;2.30;;;;;;;15.46;53.77;100500.28;10449992;28;20494;-62
2022/04/24 10:56:12;;;;;;;7.82;2.70;;;;;;;15.61;54.01;100498.06;10475465;28;20051;-62
2022/04/24 11:01:35;;;;;;;3.80;2.50;;;;;;;15.38;54.56;100491.44;10476658;28;20076;-62
2022/04/24 11:06:59;;;;;;;3.28;2.25;;;;;;;15.60;54.44;100491.13;10468691;28;20624;-62
2022/04/24 11:12:30;;;;;;;3.83;2.50;;;;;;;15.82;52.37;100498.75;10469672;28;20048;-62
2022/04/24 11:17:51;;;;;;;5.53;2.63;;;;;;;16.07;53.33;100500.78;10464128;28;20522;-62
2022/04/24 11:23:13;;;;;;;5.28;2.40;;;;;;;15.98;53.37;100505.09;10449068;28;20111;-62
2022/04/24 11:28:40;;;;;;;4.78;2.40;;;;;;;15.92;51.90;100497.78;10462498;28;20036;-62
2022/04/24 11:34:07;;;;;;;4.95;2.65;;;;;;;16.29;52.42;100484.69;10438499;28;20577;-62
2022/04/24 11:39:32;;;;;;;3.97;2.20;;;;;;;16.26;53.50;100503.38;10427015;28;20049;-62
2022/04/24 11:50:34;;;;;;;10.73;2.47;;;;;;;16.63;52.79;100484.84;10472204;28;20394;-62
2022/04/24 11:56:16;;;;;;;4.15;2.47;;;;;;;16.99;52.91;100477.84;10449825;28;20040;-62
2022/04/24 12:01:37;;;;;;;4.70;2.35;;;;;;;16.79;52.15;100484.22;10454731;28;20041;-62
2022/04/24 12:07:05;;;;;;;3.30;2.20;;;;;;;16.88;51.29;100484.16;10454360;28;20048;-62
2022/04/24 12:12:27;;;;;;;2.70;2.00;;;;;;;16.95;51.57;100485.22;10454464;28;20044;-62
2022/04/24 12:17:56;;;;;;;5.20;2.35;;;;;;;16.55;50.37;100483.91;10461946;28;20351;-62
2022/04/24 12:23:18;;;;;;;4.72;2.10;;;;;;;16.71;53.51;100482.31;10444844;28;20617;-62
2022/04/24 12:28:40;;;;;;;4.35;2.20;;;;;;;16.81;53.84;100477.84;10457231;28;20049;-63
2022/04/24 12:34:02;;;;;;;3.03;2.00;;;;;;;16.76;54.07;100492.41;10480345;28;20398;-62
2022/04/24 12:39:25;;;;;;;3.65;2.17;;;;;;;16.42;54.76;100486.88;10480995;28;20059;-62
2022/04/24 12:44:47;;;;;;;3.83;2.30;;;;;;;16.41;55.13;100479.13;10454038;28;20053;-62
2022/04/24 12:50:10;;;;;;;4.35;2.28;;;;;;;16.79;54.23;100482.41;10460541;28;20048;-62
2022/04/24 12:55:31;;;;;;;3.25;2.50;;;;;;;16.98;54.70;100479.69;10468179;28;20044;-62
2022/04/24 13:00:53;;;;;;;4.07;2.30;;;;;;;16.94;54.48;100473.03;10451286;28;20052;-62
2022/04/24 13:06:15;;;;;;;5.60;2.45;;;;;;;17.08;54.35;100469.91;10468877;28;20045;-62
2022/04/24 13:11:37;;;;;;;3.20;2.15;;;;;;;16.85;55.67;100463.41;10483733;28;20057;-61
2022/04/24 13:22:40;;;;;;;2.67;2.15;;;;;;;17.17;52.07;100469.03;10468589;28;20052;-62
2022/04/24 13:28:03;;;;;;;3.40;2.33;;;;;;;17.37;55.00;100449.47;10460191;28;20054;-61
2022/04/24 13:33:27;;;;;;;2.70;1.73;;;;;;;17.56;52.62;100447.50;10450280;28;20135;-62
2022/04/24 13:38:49;;;;;;;3.45;1.77;;;;;;;17.18;53.60;100454.84;10450540;28;20052;-62
2022/04/24 13:44:11;;;;;;;6.82;2.15;;;;;;;17.28;55.38;100454.78;10467495;28;20049;-62
2022/04/24 13:49:33;;;;;;;3.63;2.00;;;;;;;17.06;55.43;100458.69;10454038;28;20051;-63
2022/04/24 13:54:55;;;;;;;3.45;2.05;;;;;;;17.02;54.29;100461.78;10460795;28;20094;-62
2022/04/24 14:00:17;;;;;;;4.18;2.15;;;;;;;17.22;55.50;100450.13;10477365;28;20053;-63
2022/04/24 14:05:40;;;;;;;2.63;2.00;;;;;;;17.04;52.44;100462.44;10464036;28;20055;-62
2022/04/24 14:11:04;;;;;;;5.10;2.05;;;;;;;17.28;52.48;100450.34;10457463;28;20068;-62
2022/04/24 14:16:26;;;;;;;5.28;1.90;;;;;;;17.40;53.99;100444.72;10446665;28;20051;-63
2022/04/24 14:21:49;;;;;;;3.25;1.90;;;;;;;17.33;52.75;100442.84;10453575;28;20510;-62
2022/04/24 14:27:13;;;;;;;3.10;2.00;;;;;;;17.16;54.53;100445.44;10454630;28;20044;-62
2022/04/24 14:32:34;;;;;;;3.45;2.22;;;;;;;17.04;53.94;100447.47;10458477;28;20512;-62
2022/04/24 14:37:57;;;;;;;4.32;2.13;;;;;;;17.07;53.83;100441.91;10440623;28;20387;-62
2022/04/24 14:43:20;;;;;;;4.28;2.20;;;;;;;17.07;52.70;100452.44;10443385;28;20052;-62
2022/04/24 15:00:06;;;;;;;3.38;2.45;;;;;;;16.75;54.25;100461.78;10464335;28;20502;-62
2022/04/24 15:05:27;;;;;;;3.67;1.80;;;;;;;16.73;53.24;100454.06;10461370;28;20049;-62
2022/04/24 15:10:51;;;;;;;6.30;2.30;;;;;;;16.39;54.05;100464.47;10433226;28;20048;-62
2022/04/24 15:16:12;;;;;;;4.90;2.33;;;;;;;16.31;54.48;100466.97;10449250;28;20048;-61
2022/04/24 15:21:34;;;;;;;5.82;2.50;;;;;;;16.70;53.08;100464.88;10453060;28;20044;-62
2022/04/24 15:26:56;;;;;;;3.95;2.42;;;;;;;16.70;54.88;100474.56;10460692;28;20099;-63
2022/04/24 15:32:18;;;;;;;7.72;2.97;;;;;;;16.29;56.11;100476.78;10457250;28;20047;-62
2022/04/24 15:37:44;;;;;;;7.07;3.13;;;;;;;16.50;54.33;100473.00;10470025;28;20059;-61
2022/04/24 15:43:06;;;;;;;9.13;2.90;;;;;;;16.58;54.74;100471.31;10472068;28;20143;-61
2022/04/24 15:48:28;;;;;;;7.97;3.15;;;;;;;16.61;55.09;100470.19;10486904;28;20075;-61
2022/04/24 15:53:50;;;;;;;8.45;3.08;;;;;;;16.71;55.02;100482.31;10481717;28;20053;-62
2022/04/24 15:59:12;;;;;;;7.40;3.22;;;;;;;16.36;55.44;100485.78;10491846;28;20640;-61
2022/04/24 16:04:34;;;;;;;10.77;3.00;;;;;;;16.66;54.99;100479.28;10482621;28;20064;-63
2022/04/24 16:09:56;;;;;;;8.10;3.22;;;;;;;16.78;54.03;100491.28;10478106;28;20040;-61
2022/04/24 16:15:18;;;;;;;7.03;3.13;;;;;;;16.69;54.68;100489.53;10480184;28;20056;-60
2022/04/24 16:20:40;;;;;;;5.93;2.90;;;;;;;16.46;55.19;100501.38;10475312;28;20160;-62
2022/04/24 16:26:02;;;;;;;6.97;2.80;;;;;;;16.31;56.07;100502.00;10474173;28;20044;-62
2022/04/24 16:31:24;;;;;;;7.45;3.58;;;;;;;16.56;55.90;100507.47;10478729;28;20067;-64
2022/04/24 16:36:46;;;;;;;6.97;3.53;;;;;;;16.50;55.89;100505.41;10485614;28;20048;-62
2022/04/24 16:42:08;;;;;;;6.00;3.33;;;;;;;16.28;56.01;100509.34;10467906;28;20052;-63
2022/04/24 16:47:30;;;;;;;6.93;3.80;;;;;;;16.08;56.38;100529.56;10464740;28;20044;-63
2022/04/24 16:58:46;;;;;;;7.28;3.58;;;;;;;15.69;57.65;100521.88;10405953;28;20049;-61
2022/04/24 17:04:08;;;;;;;7.85;3.92;;;;;;;15.72;57.63;100517.16;10458218;28;20045;-61
2022/04/24 17:09:30;;;;;;;7.43;3.70;;;;;;;15.64;58.04;100534.59;10442491;28;20044;-61
2022/04/24 17:14:53;;;;;;;9.43;3.63;;;;;;;15.50;58.45;100543.69;10452311;28;20118;-63
2022/04/24 17:20:16;;;;;;;5.53;3.20;;;;;;;15.48;59.61;100536.91;10466099;28;20094;-61
2022/04/24 17:25:38;;;;;;;6.13;3.67;;;;;;;15.19;60.58;100538.63;10450862;28;20460;-62
2022/04/24 17:31:00;;;;;;;8.55;3.88;;;;;;;14.92;62.07;100534.94;10472862;28;20059;-60
2022/04/24 17:36:22;;;;;;;9.77;3.60;;;;;;;14.62;62.94;100527.13;10470464;28;20052;-60
2022/04/24 17:41:47;;;;;;;11.57;4.27;;;;;;;14.40;64.27;100519.41;10486434;28;20098;-62
2022/04/24 17:47:09;;;;;;;7.10;4.00;;;;;;;14.03;64.23;100507.72;10454990;28;20048;-62
2022/04/24 17:52:31;;;;;;;8.23;4.18;;;;;;;13.95;64.31;100522.44;10459581;28;20055;-61
2022/04/24 17:57:53;;;;;;;9.98;4.00;;;;;;;13.79;64.42;100535.97;10446450;28;20095;-61
2022/04/24 18:03:14;;;;;;;7.90;4.13;;;;;;;13.49;64.14;100548.94;10451924;28;20072;-61
2022/04/24 18:08:37;;;;;;;6.93;4.30;;;;;;;13.34;64.40;100551.13;10453290;28;20044;-63
2022/04/24 18:14:00;;;;;;;6.97;4.07;;;;;;;13.31;63.92;100559.25;10465511;28;20056;-61
2022/04/24 18:19:22;;;;;;;6.90;4.25;;;;;;;13.23;63.13;100562.47;10455757;28;20054;-63
2022/04/24 18:24:44;;;;;;;9.02;4.20;;;;;;;13.13;63.59;100571.16;10444303;28;20568;-62
2022/04/24 18:30:07;;;;;;;8.57;4.30;;;;;;;13.11;62.51;100576.50;10454110;28;20044;-62
2022/04/24 18:37:35;;;;;;;9.98;4.38;;;;;;;12.98;63.57;100586.28;10449716;28;20048;-64
2022/04/24 18:41:11;;;;;;;11.98;4.55;;;;;;;12.97;62.85;100595.06;10467157;28;20057;-63
2022/04/24 18:46:33;;;;;;;9.80;4.43;;;;;;;12.74;64.30;100592.53;10445100;28;20832;-62
2022/04/24 18:51:56;;;;;;;10.00;4.82;;;;;;;12.76;64.01;100604.56;10474181;28;20048;-64
2022/04/24 18:57:18;;;;;;;11.63;5.00;;;;;;;12.57;63.92;100606.91;10459196;28;20049;-62
2022/04/24 19:02:41;;;;;;;13.98;4.80;;;;;;;12.58;64.38;100616.44;10464804;28;20048;-61
2022/04/24 19:08:04;;;;;;;7.32;4.22;;;;;;;12.62;63.92;100638.78;10474936;28;20128;-61
2022/04/24 19:13:26;;;;;;;12.60;5.13;;;;;;;12.48;65.87;100642.56;10470542;28;20052;-62
2022/04/24 19:18:48;;;;;;;10.35;5.35;;;;;;;12.41;64.82;100651.81;10472549;28;20052;-61
2022/04/24 19:24:10;;;;;;;8.93;5.13;;;;;;;12.23;65.82;100653.16;10477870;28;20555;-62
2022/04/24 19:29:31;;;;;;;13.38;6.07;;;;;;;11.70;72.63;100641.44;10480638;28;20051;-62
2022/04/24 19:34:53;;;;;;;12.23;5.93;;;;;;;11.39;75.14;100643.66;10502025;28;20044;-63
2022/04/24 19:40:16;;;;;;;13.52;6.47;;;;;;;11.23;76.31;100650.09;10494954;28;20051;-63
2022/04/24 19:45:38;;;;;;;10.25;5.70;;;;;;;11.17;78.39;100656.56;10487788;28;20060;-65
2022/04/24 19:51:00;;;;;;;12.35;6.53;;;;;;;11.22;75.58;100674.50;10484632;28;20084;-63
2022/04/24 19:56:22;;;;;;;11.48;6.43;;;;;;;11.03;77.34;100682.78;10486457;28;20040;-62
2022/04/24 20:01:44;;;;;;;12.75;7.13;;;;;;;11.12;76.01;100674.31;10510942;28;20057;-62
2022/04/24 20:07:06;;;;;;;12.45;6.35;;;;;;;11.03;76.79;100672.34;10483087;28;20095;-62
2022/04/24 20:12:27;;;;;;;13.15;6.82;;;;;;;10.93;76.39;100686.13;10482240;28;20040;-61
2022/04/24 20:18:10;;;;;;;18.48;6.47;;;;;;;11.05;75.81;100709.59;10489323;28;20432;-62
2022/04/24 20:23:33;;;;;;;12.98;6.97;;;;;;;11.05;76.80;100699.16;10473637;28;20401;-60
2022/04/24 20:28:56;;;;;;;15.18;6.93;;;;;;;11.06;75.62;100700.81;10498556;28;20053;-60
2022/04/24 20:34:18;;;;;;;14.73;7.32;;;;;;;11.04;75.71;100710.53;10487052;28;20485;-61
2022/04/24 20:39:48;;;;;;;14.55;7.47;;;;;;;10.94;75.74;100719.09;10466073;28;20056;-60
2022/04/24 20:45:09;;;;;;;13.25;7.18;;;;;;;10.92;78.39;100721.78;10480481;28;20504;-61
2022/04/24 20:50:31;;;;;;;11.38;6.75;;;;;;;10.91;77.90;100727.97;10484458;28;20040;-62
2022/04/24 20:55:53;;;;;;;13.25;7.47;;;;;;;10.88;77.86;100709.91;10478774;28;20060;-61
2022/04/24 21:01:15;;;;;;;13.65;7.13;;;;;;;10.77;77.64;100708.94;10470176;28;20060;-61
2022/04/24 21:06:37;;;;;;;17.73;7.63;;;;;;;10.62;77.76;100716.00;10473271;28;20052;-62
2022/04/24 21:11:59;;;;;;;15.07;7.07;;;;;;;10.60;77.77;100723.13;10479915;28;20056;-60
2022/04/24 21:17:22;;;;;;;15.52;7.60;;;;;;;10.53;77.37;100721.84;10476778;28;20096;-61
2022/04/24 21:22:45;;;;;;;14.55;6.55;;;;;;;10.44;76.66;100726.00;10487628;28;20053;-62
2022/04/24 21:28:07;;;;;;;15.90;6.82;;;;;;;10.51;75.38;100722.03;10466295;28;20091;-60
2022/04/24 21:33:29;;;;;;;14.52;6.93;;;;;;;10.37;77.57;100719.50;10489856;28;20049;-61
2022/04/24 21:38:50;;;;;;;14.48;7.05;;;;;;;10.28;76.42;100726.13;10500939;28;20044;-61
2022/04/24 21:44:12;;;;;;;11.80;6.82;;;;;;;10.21;76.37;100729.25;10493052;28;20059;-61
2022/04/24 21:49:34;;;;;;;14.10;6.72;;;;;;;10.18;76.62;100730.28;10486901;28;20052;-61
2022/04/24 21:54:56;;;;;;;14.93;7.07;;;;;;;10.17;75.41;100725.19;10471992;28;20056;-60
2022/04/24 22:00:33;;;;;;;18.10;7.47;;;;;;;10.17;78.23;100736.44;10477311;28;20056;-61
2022/04/24 22:05:55;;;;;;;16.90;7.53;;;;;;;10.09;75.69;100727.44;10456849;28;20053;-60
2022/04/24 22:11:16;;;;;;;13.70;7.50;;;;;;;10.01;75.91;100735.72;10477486;28;20048;-61
2022/04/24 22:16:42;;;;;;;14.95;7.07;;;;;;;9.98;74.84;100742.88;10481574;28;20049;-61
2022/04/24 22:27:44;;;;;;;13.85;7.05;;;;;;;9.83;76.75;100754.25;10484108;28;20048;-61
2022/04/24 22:33:06;;;;;;;18.05;7.47;;;;;;;9.86;77.89;100760.09;10470963;28;20493;-61
2022/04/24 22:38:28;;;;;;;14.35;7.38;;;;;;;9.66;77.46;100749.25;10502863;28;20045;-60
2022/04/24 22:43:49;;;;;;;15.05;7.43;;;;;;;9.64;77.29;100758.94;10480628;28;20054;-61
2022/04/24 22:49:11;;;;;;;13.45;7.75;;;;;;;9.63;77.54;100752.03;10474159;28;20060;-61
2022/04/24 22:54:33;;;;;;;15.52;7.15;;;;;;;9.60;77.47;100762.66;10475182;28;20063;-61
2022/04/24 22:59:55;;;;;;;15.10;6.90;;;;;;;9.54;77.75;100752.63;10463500;28;20052;-61
2022/04/24 23:05:16;;;;;;;18.60;7.28;;;;;;;9.56;76.47;100759.41;10483442;28;20071;-61
2022/04/24 23:10:38;;;;;;;14.80;6.50;;;;;;;9.52;76.74;100757.09;10448177;28;20049;-60
2022/04/24 23:15:59;;;;;;;11.77;6.82;;;;;;;9.39;77.51;100768.34;10447118;28;20417;-63
2022/04/24 23:21:51;;;;;;;15.20;6.70;;;;;;;9.40;77.09;100783.84;10474913;28;20056;-61
2022/04/24 23:27:05;;;;;;;16.23;6.55;;;;;;;9.30;78.65;100789.69;10471855;28;20123;-61
2022/04/24 23:32:27;;;;;;;11.27;6.18;;;;;;;9.30;77.44;100790.53;10466490;28;20569;-61
2022/04/24 23:37:48;;;;;;;12.70;6.32;;;;;;;9.23;76.79;100802.22;10474307;28;20135;-63
2022/04/24 23:43:10;;;;;;;10.63;6.18;;;;;;;9.27;76.96;100811.53;10476720;28;20063;-61
2022/04/24 23:48:32;;;;;;;13.70;6.32;;;;;;;9.26;77.90;100815.06;10474561;28;20409;-61
2022/04/24 23:53:54;;;;;;;11.85;5.97;;;;;;;9.31;77.03;100833.84;10458977;28;20052;-61
2022/04/24 23:59:16;;;;;;;13.43;6.07;;;;;;;9.33;76.75;100833.72;10483548;28;20053;-61
